createdAt,value
2022-12-31T00:01:40.960Z,100.00
2022-12-31T00:04:07.433Z,100.00
2022-12-31T00:06:35.952Z,100.00
2022-12-31T00:09:05.311Z,100.00
2022-12-31T00:11:32.777Z,100.00
2022-12-31T00:13:59.821Z,100.00
2022-12-31T00:16:32.306Z,100.00
2022-12-31T00:19:00.560Z,100.00
2022-12-31T00:21:31.656Z,100.00
2022-12-31T00:23:57.993Z,100.00
2022-12-31T00:26:29.735Z,100.00
2022-12-31T00:28:57.644Z,100.00
2022-12-31T00:31:26.876Z,100.00
2022-12-31T00:33:53.605Z,100.00
2022-12-31T00:36:23.054Z,100.00
2022-12-31T00:38:51.910Z,100.00
2022-12-31T00:41:20.094Z,100.00
2022-12-31T00:43:47.187Z,100.00
2022-12-31T00:46:14.312Z,100.00
2022-12-31T00:48:41.008Z,100.00
2022-12-31T00:51:10.289Z,100.00
2022-12-31T00:53:37.208Z,100.00
2022-12-31T00:56:05.977Z,100.00
2022-12-31T00:58:33.364Z,100.00
2022-12-31T01:01:08.422Z,100.00
2022-12-31T01:03:35.025Z,100.00
2022-12-31T01:06:01.736Z,100.00
2022-12-31T01:08:28.141Z,100.00
2022-12-31T01:11:13.450Z,100.00
2022-12-31T01:13:39.845Z,100.00
2022-12-31T01:16:10.865Z,100.00
2022-12-31T01:18:37.708Z,100.00
2022-12-31T01:21:07.010Z,100.00
2022-12-31T01:23:34.135Z,100.00
2022-12-31T01:26:03.960Z,100.00
2022-12-31T01:28:30.934Z,100.00
2022-12-31T01:30:57.869Z,100.00
2022-12-31T01:33:24.308Z,100.00
2022-12-31T01:35:51.868Z,100.00
2022-12-31T01:38:18.272Z,100.00
2022-12-31T01:40:44.672Z,100.00
2022-12-31T01:43:19.977Z,100.00
2022-12-31T01:45:49.850Z,100.00
2022-12-31T01:48:22.489Z,100.00
2022-12-31T01:50:49.858Z,100.00
2022-12-31T01:53:18.122Z,100.00
2022-12-31T01:55:56.190Z,100.00
2022-12-31T01:58:37.928Z,100.00
2022-12-31T02:01:05.316Z,100.00
2022-12-31T02:03:31.859Z,100.00
2022-12-31T02:06:06.821Z,100.00
2022-12-31T02:08:41.634Z,100.00
2022-12-31T02:11:23.912Z,100.00
2022-12-31T02:13:56.520Z,100.00
2022-12-31T02:16:36.768Z,100.00
2022-12-31T02:19:32.764Z,100.00
2022-12-31T02:22:30.331Z,100.00
2022-12-31T02:25:18.412Z,100.00
2022-12-31T02:28:26.882Z,100.00
2022-12-31T02:31:01.172Z,100.00
2022-12-31T02:33:41.126Z,100.00
2022-12-31T02:36:17.143Z,100.00
2022-12-31T02:38:47.848Z,100.00
2022-12-31T02:41:36.735Z,100.00
2022-12-31T02:44:24.953Z,100.00
2022-12-31T02:47:13.599Z,100.00
2022-12-31T02:50:09.683Z,100.00
2022-12-31T02:53:20.180Z,100.00
2022-12-31T03:04:35.755Z,100.00
2022-12-31T03:07:05.610Z,100.00
2022-12-31T03:09:33.096Z,100.00
2022-12-31T03:12:19.378Z,100.00
2022-12-31T03:14:45.792Z,100.00
2022-12-31T03:17:12.287Z,100.00
2022-12-31T03:19:57.283Z,100.00
2022-12-31T03:22:29.698Z,100.00
2022-12-31T03:25:20.772Z,100.00
2022-12-31T03:27:47.818Z,100.00
2022-12-31T03:30:16.806Z,100.00
2022-12-31T03:32:45.011Z,100.00
2022-12-31T03:35:20.208Z,100.00
2022-12-31T03:37:48.124Z,100.00
2022-12-31T03:40:16.007Z,100.00
2022-12-31T03:42:42.616Z,100.00
2022-12-31T03:45:10.584Z,100.00
2022-12-31T03:47:37.003Z,100.00
2022-12-31T03:50:04.998Z,100.00
2022-12-31T03:52:31.387Z,100.00
2022-12-31T03:54:57.804Z,100.00
2022-12-31T03:57:24.290Z,100.00
2022-12-31T03:59:50.868Z,100.00
2022-12-31T04:02:26.347Z,100.00
2022-12-31T04:04:54.834Z,100.00
2022-12-31T04:07:21.257Z,100.00
2022-12-31T04:09:47.671Z,100.00
2022-12-31T04:12:14.129Z,100.00
2022-12-31T04:14:40.625Z,100.00
2022-12-31T04:17:07.066Z,100.00
2022-12-31T04:19:33.478Z,100.00
2022-12-31T04:21:59.918Z,100.00
2022-12-31T04:24:26.494Z,100.00
2022-12-31T04:26:52.900Z,100.00
2022-12-31T04:29:19.328Z,100.00
2022-12-31T04:31:45.741Z,100.00
2022-12-31T04:34:12.163Z,100.00
2022-12-31T04:36:38.549Z,100.00
2022-12-31T04:39:04.949Z,100.00
2022-12-31T04:41:31.367Z,100.00
2022-12-31T04:43:59.013Z,100.00
2022-12-31T04:46:30.621Z,100.00
2022-12-31T04:48:57.855Z,100.00
2022-12-31T04:51:25.656Z,100.00
2022-12-31T04:53:52.118Z,100.00
2022-12-31T04:56:18.946Z,100.00
2022-12-31T04:58:45.642Z,100.00
2022-12-31T05:01:12.653Z,100.00
2022-12-31T05:03:39.201Z,100.00
2022-12-31T05:06:08.569Z,100.00
2022-12-31T05:08:36.175Z,100.00
2022-12-31T05:11:03.061Z,100.00
2022-12-31T05:13:33.306Z,100.00
2022-12-31T05:16:01.107Z,100.00
2022-12-31T05:18:27.962Z,100.00
2022-12-31T05:20:54.374Z,100.00
2022-12-31T05:23:20.841Z,100.00
2022-12-31T05:25:48.159Z,100.00
2022-12-31T05:28:16.020Z,100.00
2022-12-31T05:30:43.403Z,100.00
2022-12-31T05:33:10.483Z,100.00
2022-12-31T05:35:37.212Z,100.00
2022-12-31T05:38:03.809Z,100.00
2022-12-31T05:40:30.705Z,100.00
2022-12-31T05:42:57.419Z,100.00
2022-12-31T05:45:30.166Z,100.00
2022-12-31T05:47:57.277Z,100.00
2022-12-31T05:50:23.685Z,100.00
2022-12-31T05:52:55.226Z,100.00
2022-12-31T05:55:21.624Z,100.00
2022-12-31T05:57:48.023Z,100.00
2022-12-31T06:00:14.899Z,100.00
2022-12-31T06:02:41.929Z,100.00
2022-12-31T06:05:09.090Z,100.00
2022-12-31T06:07:38.357Z,100.00
2022-12-31T06:10:05.503Z,100.00
2022-12-31T06:12:35.438Z,100.00
2022-12-31T06:15:01.935Z,100.00
2022-12-31T06:17:31.940Z,100.00
2022-12-31T06:19:59.738Z,100.00
2022-12-31T06:22:26.473Z,100.00
2022-12-31T06:24:52.864Z,100.00
2022-12-31T06:27:19.282Z,100.00
2022-12-31T06:29:45.760Z,100.00
2022-12-31T06:32:12.548Z,100.00
2022-12-31T06:34:38.952Z,100.00
2022-12-31T06:37:05.364Z,100.00
2022-12-31T06:39:31.789Z,100.00
2022-12-31T06:41:58.213Z,100.00
2022-12-31T06:44:24.641Z,100.00
2022-12-31T06:46:51.370Z,100.00
2022-12-31T06:49:17.816Z,100.00
2022-12-31T06:51:46.015Z,100.00
2022-12-31T06:54:13.168Z,100.00
2022-12-31T06:56:42.885Z,100.00
2022-12-31T06:59:24.471Z,100.00
2022-12-31T07:02:07.469Z,100.00
2022-12-31T07:04:46.937Z,100.00
2022-12-31T07:07:26.169Z,100.00
2022-12-31T07:10:03.656Z,100.00
2022-12-31T07:12:43.899Z,100.00
2022-12-31T07:15:16.324Z,100.00
2022-12-31T07:18:14.851Z,100.00
2022-12-31T07:20:41.526Z,100.00
2022-12-31T07:23:08.257Z,100.00
2022-12-31T07:25:36.652Z,100.00
2022-12-31T07:28:20.175Z,100.00
2022-12-31T07:30:59.565Z,100.00
2022-12-31T07:33:39.880Z,100.00
2022-12-31T07:36:30.260Z,100.00
2022-12-31T07:39:05.621Z,100.00
2022-12-31T07:42:03.321Z,100.00
2022-12-31T07:44:38.368Z,100.00
2022-12-31T07:47:12.468Z,100.00
2022-12-31T07:49:42.812Z,100.00
2022-12-31T07:52:09.613Z,100.00
2022-12-31T07:54:36.077Z,100.00
2022-12-31T07:57:02.526Z,100.00
2022-12-31T08:00:01.803Z,100.00
2022-12-31T08:03:10.360Z,100.00
2022-12-31T08:05:58.065Z,100.00
2022-12-31T08:08:36.232Z,100.00
2022-12-31T08:11:17.836Z,100.00
2022-12-31T08:13:45.207Z,100.00
2022-12-31T08:16:13.136Z,100.00
2022-12-31T08:18:40.021Z,100.00
2022-12-31T08:21:21.407Z,100.00
2022-12-31T08:24:12.676Z,100.00
2022-12-31T08:26:52.790Z,100.00
2022-12-31T08:29:38.250Z,100.00
2022-12-31T08:32:16.833Z,100.00
2022-12-31T08:35:05.009Z,100.00
2022-12-31T08:37:58.302Z,100.00
2022-12-31T08:40:38.299Z,100.00
2022-12-31T08:43:16.977Z,100.00
2022-12-31T08:45:52.105Z,100.00
2022-12-31T08:48:39.296Z,100.00
2022-12-31T08:51:06.293Z,100.00
2022-12-31T08:53:33.094Z,100.00
2022-12-31T08:56:38.725Z,100.00
2022-12-31T08:59:26.624Z,100.00
2022-12-31T09:01:55.838Z,100.00
2022-12-31T09:04:45.941Z,100.00
2022-12-31T09:07:13.945Z,99.58
2022-12-31T09:09:54.802Z,99.27
2022-12-31T09:12:41.859Z,99.70
2022-12-31T09:15:15.124Z,99.78
2022-12-31T09:17:50.618Z,98.81
2022-12-31T09:20:42.356Z,98.97
2022-12-31T09:23:11.537Z,98.59
2022-12-31T09:25:46.752Z,98.18
2022-12-31T09:28:19.664Z,98.04
2022-12-31T09:30:50.783Z,96.75
2022-12-31T09:33:32.944Z,96.83
2022-12-31T09:36:05.456Z,96.08
2022-12-31T09:38:52.548Z,95.76
2022-12-31T09:41:52.712Z,95.95
2022-12-31T09:45:05.133Z,94.80
2022-12-31T09:47:46.553Z,94.57
2022-12-31T09:50:29.947Z,94.48
2022-12-31T09:53:08.029Z,93.85
2022-12-31T09:55:45.529Z,94.24
2022-12-31T09:58:36.444Z,93.54
2022-12-31T10:01:14.080Z,92.61
2022-12-31T10:03:46.596Z,92.16
2022-12-31T10:06:25.921Z,91.69
2022-12-31T10:09:30.071Z,91.91
2022-12-31T10:12:26.812Z,91.31
2022-12-31T10:15:10.069Z,90.24
2022-12-31T10:18:09.319Z,90.75
2022-12-31T10:20:56.675Z,90.49
2022-12-31T10:23:43.558Z,90.53
2022-12-31T10:26:28.448Z,91.23
2022-12-31T10:29:25.529Z,90.98
2022-12-31T10:32:19.790Z,92.55
2022-12-31T10:35:11.784Z,93.62
2022-12-31T10:37:52.847Z,95.00
2022-12-31T10:40:26.757Z,96.70
2022-12-31T10:43:26.357Z,100.00
2022-12-31T10:46:34.892Z,100.00
2022-12-31T10:49:41.777Z,100.00
2022-12-31T10:52:38.187Z,100.00
2022-12-31T10:55:44.578Z,100.00
2022-12-31T10:58:39.760Z,100.00
2022-12-31T11:01:24.199Z,100.00
2022-12-31T11:04:34.133Z,100.00
2022-12-31T11:07:36.733Z,100.00
2022-12-31T11:10:21.578Z,100.00
2022-12-31T11:13:38.270Z,100.00
2022-12-31T11:16:33.293Z,100.00
2022-12-31T11:19:29.944Z,100.00
2022-12-31T11:22:24.928Z,100.00
2022-12-31T11:25:11.399Z,100.00
2022-12-31T11:28:13.662Z,100.00
2022-12-31T11:31:05.089Z,100.00
2022-12-31T11:33:53.073Z,100.00
2022-12-31T11:36:19.484Z,100.00
2022-12-31T11:39:12.292Z,100.00
2022-12-31T11:42:20.543Z,100.00
2022-12-31T11:44:57.489Z,99.81
2022-12-31T11:48:29.183Z,98.38
2022-12-31T11:51:39.516Z,95.76
2022-12-31T11:54:32.573Z,94.01
2022-12-31T11:57:16.176Z,93.52
2022-12-31T11:59:42.566Z,92.50
2022-12-31T12:02:32.116Z,91.72
2022-12-31T12:05:08.270Z,90.00
2022-12-31T12:07:36.893Z,89.39
2022-12-31T12:10:14.965Z,88.05
2022-12-31T12:12:42.514Z,88.08
2022-12-31T12:15:16.829Z,88.02
2022-12-31T12:17:43.538Z,86.31
2022-12-31T12:20:24.588Z,85.95
2022-12-31T12:22:53.275Z,85.73
2022-12-31T12:25:23.757Z,85.66
2022-12-31T12:27:50.165Z,85.76
2022-12-31T12:30:26.795Z,85.37
2022-12-31T12:32:55.915Z,85.38
2022-12-31T12:35:36.136Z,85.24
2022-12-31T12:38:13.458Z,84.88
2022-12-31T12:40:40.667Z,85.02
2022-12-31T12:43:22.531Z,84.24
2022-12-31T12:45:52.048Z,84.89
2022-12-31T12:48:29.710Z,84.25
2022-12-31T12:50:56.128Z,83.71
2022-12-31T12:53:46.505Z,83.24
2022-12-31T12:56:24.798Z,83.17
2022-12-31T12:59:09.926Z,82.77
2022-12-31T13:01:53.662Z,82.99
2022-12-31T13:04:42.066Z,82.47
2022-12-31T13:07:52.587Z,82.70
2022-12-31T13:10:51.330Z,81.89
2022-12-31T13:13:48.697Z,81.65
2022-12-31T13:16:34.939Z,81.90
2022-12-31T13:19:22.316Z,81.59
2022-12-31T13:22:12.152Z,81.52
2022-12-31T13:25:01.866Z,81.59
2022-12-31T13:27:35.618Z,82.05
2022-12-31T13:30:04.660Z,81.93
2022-12-31T13:32:40.732Z,81.33
2022-12-31T13:35:32.899Z,81.14
2022-12-31T13:38:07.012Z,80.90
2022-12-31T13:41:00.226Z,80.90
2022-12-31T13:43:50.708Z,80.81
2022-12-31T13:46:40.150Z,80.64
2022-12-31T13:49:18.701Z,80.81
2022-12-31T13:51:47.874Z,80.88
2022-12-31T13:54:44.737Z,80.60
2022-12-31T13:57:23.504Z,81.30
2022-12-31T13:59:57.019Z,81.22
2022-12-31T14:02:37.826Z,80.98
2022-12-31T14:05:19.218Z,80.84
2022-12-31T14:07:53.990Z,81.44
2022-12-31T14:10:34.359Z,81.64
2022-12-31T14:13:35.189Z,81.26
2022-12-31T14:16:17.151Z,81.13
2022-12-31T14:19:02.338Z,81.18
2022-12-31T14:21:38.001Z,81.69
2022-12-31T14:24:27.362Z,81.30
2022-12-31T14:26:58.621Z,81.77
2022-12-31T14:29:37.319Z,81.43
2022-12-31T14:32:36.941Z,81.17
2022-12-31T14:35:21.249Z,80.92
2022-12-31T14:38:03.103Z,81.58
2022-12-31T14:40:56.721Z,81.04
2022-12-31T14:43:40.407Z,81.54
2022-12-31T14:46:33.028Z,81.18
2022-12-31T14:49:16.028Z,81.60
2022-12-31T14:51:45.227Z,81.59
2022-12-31T14:54:28.970Z,81.41
2022-12-31T14:56:55.759Z,81.85
2022-12-31T14:59:28.912Z,81.39
2022-12-31T15:01:58.187Z,81.39
2022-12-31T15:04:45.307Z,80.70
2022-12-31T15:07:46.830Z,80.47
2022-12-31T15:10:22.348Z,80.89
2022-12-31T15:13:12.120Z,81.09
2022-12-31T15:16:02.633Z,80.71
2022-12-31T15:18:42.689Z,80.86
2022-12-31T15:21:24.998Z,81.37
2022-12-31T15:23:51.528Z,81.38
2022-12-31T15:26:26.789Z,81.35
2022-12-31T15:29:00.314Z,81.21
2022-12-31T15:31:28.624Z,81.50
2022-12-31T15:34:23.023Z,81.83
2022-12-31T15:36:58.451Z,81.71
2022-12-31T15:39:48.233Z,81.37
2022-12-31T15:42:39.215Z,82.13
2022-12-31T15:45:23.021Z,82.36
2022-12-31T15:47:56.649Z,82.11
2022-12-31T15:50:29.571Z,82.30
2022-12-31T15:52:59.923Z,82.25
2022-12-31T15:55:32.328Z,82.34
2022-12-31T15:58:05.190Z,82.35
2022-12-31T16:00:57.221Z,82.25
2022-12-31T16:03:25.769Z,82.14
2022-12-31T16:05:57.403Z,82.24
2022-12-31T16:08:28.335Z,81.85
2022-12-31T16:10:55.309Z,82.10
2022-12-31T16:13:25.310Z,82.58
2022-12-31T16:15:57.562Z,82.47
2022-12-31T16:18:23.986Z,82.27
2022-12-31T16:21:00.097Z,82.34
2022-12-31T16:23:30.293Z,82.16
2022-12-31T16:26:01.468Z,81.90
2022-12-31T16:28:32.576Z,82.03
2022-12-31T16:31:02.880Z,81.79
2022-12-31T16:33:32.382Z,82.17
2022-12-31T16:36:04.834Z,81.83
2022-12-31T16:38:37.916Z,81.25
2022-12-31T16:41:18.533Z,81.38
2022-12-31T16:43:46.958Z,81.44
2022-12-31T16:46:27.432Z,80.93
2022-12-31T16:49:00.165Z,80.93
2022-12-31T16:51:39.034Z,81.04
2022-12-31T16:54:21.445Z,80.40
2022-12-31T16:56:48.001Z,81.49
2022-12-31T16:59:35.460Z,80.79
2022-12-31T17:02:05.148Z,80.91
2022-12-31T17:04:31.681Z,80.49
2022-12-31T17:07:27.948Z,79.66
2022-12-31T17:10:06.688Z,79.52
2022-12-31T17:13:16.995Z,79.88
2022-12-31T17:15:41.071Z,79.64
2022-12-31T17:18:13.702Z,80.22
2022-12-31T17:20:40.220Z,80.17
2022-12-31T17:23:09.160Z,80.00
2022-12-31T17:25:38.570Z,80.12
2022-12-31T17:28:22.198Z,80.03
2022-12-31T17:30:49.001Z,80.07
2022-12-31T17:33:21.445Z,79.54
2022-12-31T17:36:14.444Z,79.56
2022-12-31T17:38:42.195Z,79.24
2022-12-31T17:41:08.541Z,79.57
2022-12-31T17:43:38.970Z,79.27
2022-12-31T17:46:13.977Z,79.50
2022-12-31T17:48:41.536Z,79.16
2022-12-31T17:51:08.164Z,79.25
2022-12-31T17:53:34.906Z,79.51
2022-12-31T17:56:07.329Z,79.34
2022-12-31T17:58:43.372Z,79.24
2022-12-31T18:01:13.455Z,79.43
2022-12-31T18:03:40.128Z,79.67
2022-12-31T18:06:14.506Z,79.27
2022-12-31T18:08:42.849Z,79.75
2022-12-31T18:11:19.850Z,79.31
2022-12-31T18:13:46.649Z,79.42
2022-12-31T18:16:13.565Z,79.21
2022-12-31T18:18:41.989Z,79.15
2022-12-31T18:21:16.694Z,79.22
2022-12-31T18:23:47.994Z,79.07
2022-12-31T18:26:16.881Z,79.39
2022-12-31T18:28:43.450Z,79.61
2022-12-31T18:31:18.918Z,79.25
2022-12-31T18:33:46.838Z,79.17
2022-12-31T18:36:15.521Z,78.96
2022-12-31T18:38:42.153Z,79.46
2022-12-31T18:41:16.588Z,79.10
2022-12-31T18:43:43.164Z,79.18
2022-12-31T18:46:15.364Z,79.06
2022-12-31T18:48:42.006Z,79.24
2022-12-31T18:51:18.321Z,78.98
2022-12-31T18:53:47.902Z,78.95
2022-12-31T18:56:17.233Z,78.63
2022-12-31T18:58:44.760Z,78.57
2022-12-31T19:01:35.334Z,78.21
2022-12-31T19:04:27.580Z,77.96
2022-12-31T19:06:55.222Z,78.20
2022-12-31T19:09:47.163Z,78.15
2022-12-31T19:12:13.356Z,78.06
2022-12-31T19:14:39.878Z,78.13
2022-12-31T19:19:31.612Z,78.22
2022-12-31T19:21:58.051Z,78.76
2022-12-31T19:24:26.705Z,78.80
2022-12-31T19:26:54.298Z,78.69
2022-12-31T19:29:26.113Z,78.50
2022-12-31T19:31:58.456Z,78.78
2022-12-31T19:34:30.606Z,78.92
2022-12-31T19:36:57.000Z,78.94
2022-12-31T19:39:23.426Z,79.05
2022-12-31T19:41:56.581Z,79.08
2022-12-31T19:44:25.281Z,78.66
2022-12-31T19:46:51.726Z,78.80
2022-12-31T19:49:24.174Z,78.60
2022-12-31T19:51:56.074Z,78.82
2022-12-31T19:54:25.424Z,78.94
2022-12-31T19:56:51.883Z,78.57
2022-12-31T19:59:18.317Z,78.59
2022-12-31T20:01:44.820Z,77.68
2022-12-31T20:04:11.273Z,78.34
2022-12-31T20:06:40.810Z,77.59
2022-12-31T20:09:07.251Z,77.67
2022-12-31T20:11:33.794Z,77.78
2022-12-31T20:14:00.217Z,77.58
2022-12-31T20:16:26.977Z,77.51
2022-12-31T20:18:53.585Z,77.11
2022-12-31T20:21:26.285Z,76.83
2022-12-31T20:23:56.233Z,76.26
2022-12-31T20:26:23.803Z,76.57
2022-12-31T20:28:51.066Z,76.35
2022-12-31T20:31:21.375Z,75.79
2022-12-31T20:33:48.092Z,75.83
2022-12-31T20:36:16.095Z,75.41
2022-12-31T20:38:45.668Z,74.80
2022-12-31T20:41:18.010Z,74.11
2022-12-31T20:43:48.527Z,74.34
2022-12-31T20:46:24.766Z,73.83
2022-12-31T20:48:53.363Z,74.02
2022-12-31T20:51:22.188Z,73.22
2022-12-31T20:53:51.231Z,72.80
2022-12-31T20:56:18.734Z,73.04
2022-12-31T20:58:45.217Z,72.64
2022-12-31T21:01:12.373Z,72.55
2022-12-31T21:06:28.768Z,72.04
2022-12-31T21:08:57.384Z,71.61
2022-12-31T21:11:42.329Z,71.20
2022-12-31T21:14:08.856Z,71.26
2022-12-31T21:16:35.489Z,70.77
2022-12-31T21:19:02.167Z,70.68
2022-12-31T21:21:28.582Z,70.29
2022-12-31T21:23:55.004Z,70.43
2022-12-31T21:26:21.413Z,70.41
2022-12-31T21:28:47.818Z,70.07
2022-12-31T21:31:14.822Z,70.15
2022-12-31T21:33:47.725Z,70.27
2022-12-31T21:36:15.070Z,69.97
2022-12-31T21:38:41.515Z,69.96
2022-12-31T21:41:09.203Z,70.02
2022-12-31T21:43:35.670Z,69.50
2022-12-31T21:46:04.840Z,69.26
2022-12-31T21:48:34.120Z,69.30
2022-12-31T21:51:12.843Z,68.91
2022-12-31T21:53:39.584Z,69.65
2022-12-31T21:56:09.418Z,69.66
2022-12-31T21:59:07.816Z,69.35
2022-12-31T22:02:03.708Z,69.05
2022-12-31T22:07:16.653Z,69.16
2022-12-31T22:09:43.091Z,69.29
2022-12-31T22:12:09.666Z,69.49
2022-12-31T22:14:36.082Z,69.52
2022-12-31T22:17:02.481Z,69.20
2022-12-31T22:19:28.878Z,69.21
2022-12-31T22:21:55.279Z,68.88
2022-12-31T22:24:21.715Z,68.96
2022-12-31T22:26:48.134Z,68.80
2022-12-31T22:29:14.699Z,68.86
2022-12-31T22:31:41.146Z,68.34
2022-12-31T22:34:08.762Z,68.70
2022-12-31T22:36:35.284Z,68.70
2022-12-31T22:39:01.711Z,68.35
2022-12-31T22:41:28.581Z,68.32
2022-12-31T22:44:03.508Z,67.35
2022-12-31T22:46:30.513Z,67.09
2022-12-31T22:48:58.692Z,67.46
2022-12-31T22:51:28.090Z,66.92
2022-12-31T22:54:14.608Z,66.79
2022-12-31T22:56:41.229Z,66.99
2022-12-31T22:59:07.757Z,66.47
2022-12-31T23:01:34.463Z,66.41
2022-12-31T23:04:01.128Z,66.64
2022-12-31T23:06:28.694Z,65.80
2022-12-31T23:09:14.611Z,65.82
2022-12-31T23:11:43.020Z,65.98
2022-12-31T23:14:59.155Z,65.56
2022-12-31T23:17:45.386Z,65.66
2022-12-31T23:20:39.994Z,65.44
2022-12-31T23:23:14.597Z,64.97
2022-12-31T23:25:47.216Z,65.12
2022-12-31T23:28:16.061Z,65.37
2022-12-31T23:30:43.058Z,65.09
2022-12-31T23:33:15.289Z,64.69
2022-12-31T23:35:41.901Z,65.24
2022-12-31T23:38:08.345Z,64.81
2022-12-31T23:40:34.792Z,65.55
2022-12-31T23:43:06.594Z,65.65
2022-12-31T23:45:33.868Z,65.27
2022-12-31T23:48:00.582Z,64.46
2022-12-31T23:50:27.078Z,64.85
2022-12-31T23:52:53.950Z,65.07
2022-12-31T23:55:20.448Z,65.13
2022-12-31T23:57:46.928Z,64.55
